createdAt,value
2019-04-27T00:00:09.792Z,968.43
2019-04-27T00:01:10.583Z,968.42
2019-04-27T00:02:09.744Z,968.38
2019-04-27T00:03:09.715Z,968.39
2019-04-27T00:04:11.751Z,968.35
2019-04-27T00:05:09.666Z,968.34
2019-04-27T00:06:09.639Z,968.34
2019-04-27T00:07:09.641Z,968.35
2019-04-27T00:08:09.593Z,968.35
2019-04-27T00:09:11.602Z,968.30
2019-04-27T00:10:09.541Z,968.34
2019-04-27T00:11:09.515Z,968.25
2019-04-27T00:12:09.510Z,968.23
2019-04-27T00:13:09.474Z,968.26
2019-04-27T00:14:10.337Z,968.23
2019-04-27T00:15:09.429Z,968.26
2019-04-27T00:16:16.580Z,968.26
2019-04-27T00:18:03.645Z,968.27
2019-04-27T00:19:03.792Z,968.25
2019-04-27T00:20:56.146Z,968.22
2019-04-27T00:21:56.120Z,968.22
2019-04-27T00:23:49.240Z,968.16
2019-04-27T00:24:49.178Z,968.19
2019-04-27T00:26:43.337Z,968.19
2019-04-27T00:27:43.574Z,968.22
2019-04-27T00:29:34.929Z,968.12
2019-04-27T00:30:35.607Z,968.07
2019-04-27T00:32:27.758Z,968.06
2019-04-27T00:33:27.728Z,968.03
2019-04-27T00:35:21.171Z,968.04
2019-04-27T00:36:20.583Z,968.01
2019-04-27T00:38:13.459Z,968.04
2019-04-27T00:39:13.886Z,968.03
2019-04-27T00:41:06.327Z,968.00
2019-04-27T00:42:06.278Z,968.00
2019-04-27T00:43:59.438Z,967.94
2019-04-27T00:44:59.209Z,967.95
2019-04-27T00:46:53.445Z,967.90
2019-04-27T00:47:57.413Z,967.89
2019-04-27T00:49:45.963Z,967.88
2019-04-27T00:50:45.927Z,967.88
2019-04-27T00:51:45.896Z,967.86
2019-04-27T00:52:45.867Z,967.85
2019-04-27T00:53:45.849Z,967.85
2019-04-27T00:54:45.823Z,967.87
2019-04-27T00:55:45.804Z,967.90
2019-04-27T00:56:45.772Z,967.88
2019-04-27T00:57:45.750Z,967.94
2019-04-27T00:58:45.719Z,967.89
2019-04-27T00:59:45.699Z,967.91
2019-04-27T01:00:45.672Z,967.88
2019-04-27T01:01:45.653Z,967.90
2019-04-27T01:02:45.632Z,967.93
2019-04-27T01:03:45.613Z,967.92
2019-04-27T01:04:45.580Z,967.88
2019-04-27T01:05:45.553Z,967.86
2019-04-27T01:06:45.532Z,967.84
2019-04-27T01:07:45.505Z,967.82
2019-04-27T01:08:45.484Z,967.82
2019-04-27T01:09:45.462Z,967.78
2019-04-27T01:10:45.446Z,967.80
2019-04-27T01:11:45.403Z,967.83
2019-04-27T01:12:45.386Z,967.85
2019-04-27T01:13:45.360Z,967.83
2019-04-27T01:14:45.334Z,967.84
2019-04-27T01:15:45.310Z,967.86
2019-04-27T01:16:45.286Z,967.84
2019-04-27T01:17:45.263Z,967.83
2019-04-27T01:18:45.235Z,967.81
2019-04-27T01:19:45.212Z,967.80
2019-04-27T01:20:45.185Z,967.81
2019-04-27T01:21:45.162Z,967.76
2019-04-27T01:22:45.138Z,967.77
2019-04-27T01:23:45.127Z,967.78
2019-04-27T01:24:45.087Z,967.76
2019-04-27T01:25:45.064Z,967.77
2019-04-27T01:26:45.043Z,967.73
2019-04-27T01:27:45.013Z,967.69
2019-04-27T01:28:44.987Z,967.70
2019-04-27T01:29:44.961Z,967.69
2019-04-27T01:30:44.938Z,967.66
2019-04-27T01:31:44.914Z,967.66
2019-04-27T01:32:44.887Z,967.66
2019-04-27T01:33:44.863Z,967.66
2019-04-27T01:34:44.834Z,967.65
2019-04-27T01:35:44.816Z,967.68
2019-04-27T01:36:44.788Z,967.68
2019-04-27T01:37:44.763Z,967.72
2019-04-27T01:38:44.741Z,967.71
2019-04-27T01:39:44.719Z,967.73
2019-04-27T01:40:44.689Z,967.72
2019-04-27T01:41:44.664Z,967.68
2019-04-27T01:42:44.645Z,967.75
2019-04-27T01:43:44.616Z,967.70
2019-04-27T01:44:44.582Z,967.70
2019-04-27T01:45:44.569Z,967.68
2019-04-27T01:46:44.541Z,967.67
2019-04-27T01:47:44.515Z,967.65
2019-04-27T01:48:44.489Z,967.62
2019-04-27T01:49:44.464Z,967.54
2019-04-27T01:50:44.440Z,967.62
2019-04-27T01:51:44.415Z,967.58
2019-04-27T01:52:44.407Z,967.58
2019-04-27T01:53:44.366Z,967.54
2019-04-27T01:54:44.340Z,967.54
2019-04-27T01:55:44.319Z,967.59
2019-04-27T01:56:44.289Z,967.55
2019-04-27T01:57:44.264Z,967.53
2019-04-27T01:58:44.239Z,967.56
2019-04-27T01:59:44.233Z,967.55
2019-04-27T02:00:44.189Z,967.54
2019-04-27T02:01:44.161Z,967.54
2019-04-27T02:02:44.153Z,967.55
2019-04-27T02:03:44.110Z,967.50
2019-04-27T02:04:44.093Z,967.56
2019-04-27T02:05:44.063Z,967.55
2019-04-27T02:06:44.040Z,967.55
2019-04-27T02:07:44.017Z,967.55
2019-04-27T02:08:44.015Z,967.58
2019-04-27T02:09:43.964Z,967.57
2019-04-27T02:10:43.934Z,967.58
2019-04-27T02:11:43.910Z,967.57
2019-04-27T02:12:44.293Z,967.61
2019-04-27T02:13:43.856Z,967.56
2019-04-27T02:14:43.837Z,967.57
2019-04-27T02:15:43.811Z,967.56
2019-04-27T02:16:43.794Z,967.62
2019-04-27T02:17:43.769Z,967.59
2019-04-27T02:18:43.735Z,967.59
2019-04-27T02:19:44.547Z,967.59
2019-04-27T02:20:44.555Z,967.56
2019-04-27T02:21:43.658Z,967.59
2019-04-27T02:22:43.634Z,967.63
2019-04-27T02:23:43.608Z,967.63
2019-04-27T02:24:43.584Z,967.60
2019-04-27T02:25:43.557Z,967.63
2019-04-27T02:26:43.530Z,967.65
2019-04-27T02:27:43.503Z,967.63
2019-04-27T02:28:43.498Z,967.66
2019-04-27T02:29:43.450Z,967.62
2019-04-27T02:30:43.429Z,967.62
2019-04-27T02:31:43.408Z,967.63
2019-04-27T02:32:43.381Z,967.60
2019-04-27T02:33:43.346Z,967.60
2019-04-27T02:34:43.332Z,967.61
2019-04-27T02:35:43.304Z,967.62
2019-04-27T02:36:43.290Z,967.60
2019-04-27T02:37:43.252Z,967.62
2019-04-27T02:38:43.230Z,967.62
2019-04-27T02:39:43.196Z,967.57
2019-04-27T02:40:43.176Z,967.55
2019-04-27T02:41:43.161Z,967.61
2019-04-27T02:42:43.134Z,967.63
2019-04-27T02:43:43.122Z,967.66
2019-04-27T02:44:43.069Z,967.65
2019-04-27T02:45:43.043Z,967.59
2019-04-27T02:46:43.018Z,967.63
2019-04-27T02:47:43.002Z,967.61
2019-04-27T02:48:55.555Z,967.66
2019-04-27T02:49:42.941Z,967.62
2019-04-27T02:50:42.929Z,967.65
2019-04-27T02:51:43.147Z,967.63
2019-04-27T02:52:42.880Z,967.64
2019-04-27T02:53:42.855Z,967.64
2019-04-27T02:54:42.867Z,967.64
2019-04-27T02:55:42.787Z,967.63
2019-04-27T02:56:42.767Z,967.65
2019-04-27T02:57:42.743Z,967.67
2019-04-27T02:58:42.717Z,967.63
2019-04-27T02:59:42.690Z,967.70
2019-04-27T03:00:42.666Z,967.68
2019-04-27T03:01:46.494Z,967.73
2019-04-27T03:02:42.610Z,967.74
2019-04-27T03:03:42.593Z,967.76
2019-04-27T03:04:42.562Z,967.77
2019-04-27T03:05:42.538Z,967.78
2019-04-27T03:06:42.510Z,967.79
2019-04-27T03:07:42.832Z,967.78
2019-04-27T03:08:42.850Z,967.74
2019-04-27T03:09:42.434Z,967.77
2019-04-27T03:10:42.413Z,967.75
2019-04-27T03:11:42.405Z,967.79
2019-04-27T03:12:42.613Z,967.78
2019-04-27T03:13:42.334Z,967.76
2019-04-27T03:14:42.310Z,967.82
2019-04-27T03:15:42.278Z,967.77
2019-04-27T03:16:42.255Z,967.79
2019-04-27T03:17:42.230Z,967.79
2019-04-27T03:18:42.211Z,967.76
2019-04-27T03:19:42.189Z,967.74
2019-04-27T03:20:42.154Z,967.73
2019-04-27T03:21:42.127Z,967.74
2019-04-27T03:22:42.104Z,967.73
2019-04-27T03:23:42.078Z,967.74
2019-04-27T03:24:42.048Z,967.73
2019-04-27T03:25:42.029Z,967.78
2019-04-27T03:26:42.002Z,967.72
2019-04-27T03:27:41.976Z,967.73
2019-04-27T03:28:41.961Z,967.76
2019-04-27T03:29:42.496Z,967.76
2019-04-27T03:30:43.151Z,967.72
2019-04-27T03:31:46.885Z,967.73
2019-04-27T03:32:43.351Z,967.77
2019-04-27T03:33:43.182Z,967.74
2019-04-27T03:34:42.270Z,967.83
2019-04-27T03:35:43.357Z,967.78
2019-04-27T03:36:41.743Z,967.77
2019-04-27T03:37:41.718Z,967.81
2019-04-27T03:38:41.695Z,967.78
2019-04-27T03:39:41.669Z,967.78
2019-04-27T03:40:41.643Z,967.82
2019-04-27T03:41:41.611Z,967.81
2019-04-27T03:42:41.600Z,967.81
2019-04-27T03:43:41.587Z,967.80
2019-04-27T03:44:41.544Z,967.82
2019-04-27T03:45:41.516Z,967.80
2019-04-27T03:46:41.493Z,967.82
2019-04-27T03:47:41.465Z,967.84
2019-04-27T03:48:41.442Z,967.85
2019-04-27T03:49:41.794Z,967.80
2019-04-27T03:50:42.934Z,967.83
2019-04-27T03:51:41.374Z,967.85
2019-04-27T03:52:41.343Z,967.89
2019-04-27T03:53:41.313Z,967.84
2019-04-27T03:54:41.302Z,967.84
2019-04-27T03:55:42.840Z,967.81
2019-04-27T03:56:41.239Z,967.80
2019-04-27T03:57:41.217Z,967.83
2019-04-27T03:58:41.204Z,967.78
2019-04-27T03:59:41.164Z,967.81
2019-04-27T04:00:41.152Z,967.79
2019-04-27T04:01:41.111Z,967.78
2019-04-27T04:02:41.089Z,967.81
2019-04-27T04:03:41.059Z,967.81
2019-04-27T04:04:41.039Z,967.82
2019-04-27T04:05:41.012Z,967.82
2019-04-27T04:06:40.988Z,967.83
2019-04-27T04:07:40.970Z,967.77
2019-04-27T04:08:40.943Z,967.77
2019-04-27T04:09:40.905Z,967.77
2019-04-27T04:10:41.735Z,967.75
2019-04-27T04:11:40.860Z,967.76
2019-04-27T04:12:40.837Z,967.79
2019-04-27T04:13:40.813Z,967.76
2019-04-27T04:14:42.948Z,967.78
2019-04-27T04:15:40.764Z,967.77
2019-04-27T04:16:40.735Z,967.80
2019-04-27T04:17:40.713Z,967.82
2019-04-27T04:18:40.702Z,967.85
2019-04-27T04:19:54.538Z,967.81
2019-04-27T04:20:40.662Z,967.85
2019-04-27T04:21:40.610Z,967.84
2019-04-27T04:22:40.586Z,967.78
2019-04-27T04:23:40.586Z,967.79
2019-04-27T04:24:40.541Z,967.75
2019-04-27T04:25:41.122Z,967.76
2019-04-27T04:26:40.563Z,967.81
2019-04-27T04:27:42.703Z,967.74
2019-04-27T04:28:40.435Z,967.81
2019-04-27T04:29:40.405Z,967.74
2019-04-27T04:30:40.465Z,967.78
2019-04-27T04:31:40.754Z,967.77
2019-04-27T04:32:40.331Z,967.79
2019-04-27T04:33:40.506Z,967.82
2019-04-27T04:34:40.285Z,967.77
2019-04-27T04:35:40.259Z,967.81
2019-04-27T04:36:42.489Z,967.76
2019-04-27T04:37:40.211Z,967.79
2019-04-27T04:38:40.319Z,967.77
2019-04-27T04:39:40.554Z,967.80
2019-04-27T04:40:40.347Z,967.80
2019-04-27T04:41:43.383Z,967.78
2019-04-27T04:42:40.084Z,967.78
2019-04-27T04:43:40.144Z,967.80
2019-04-27T04:44:40.261Z,967.84
2019-04-27T04:45:40.045Z,967.82
2019-04-27T04:46:40.155Z,967.83
2019-04-27T04:47:40.692Z,967.80
2019-04-27T04:48:40.529Z,967.83
2019-04-27T04:49:39.956Z,967.84
2019-04-27T04:50:39.988Z,967.79
2019-04-27T04:51:40.264Z,967.81
2019-04-27T04:52:42.444Z,967.82
2019-04-27T04:53:40.568Z,967.84
2019-04-27T04:54:40.933Z,967.86
2019-04-27T04:55:39.771Z,967.85
2019-04-27T04:56:39.762Z,967.85
2019-04-27T04:57:40.107Z,967.82
2019-04-27T04:58:41.360Z,967.87
2019-04-27T04:59:39.670Z,967.87
2019-04-27T05:00:40.166Z,967.90
2019-04-27T05:01:40.031Z,967.90
2019-04-27T05:02:39.904Z,967.89
2019-04-27T05:03:39.564Z,967.96
2019-04-27T05:04:39.546Z,967.95
2019-04-27T05:05:41.287Z,967.94
2019-04-27T05:06:39.496Z,967.97
2019-04-27T05:07:39.473Z,967.91
2019-04-27T05:08:39.477Z,967.93
2019-04-27T05:09:39.609Z,967.92
2019-04-27T05:10:39.610Z,967.95
2019-04-27T05:11:39.650Z,967.98
2019-04-27T05:12:39.350Z,967.96
2019-04-27T05:13:39.437Z,967.92
2019-04-27T05:14:39.303Z,967.91
2019-04-27T05:15:39.542Z,967.94
2019-04-27T05:16:39.266Z,967.91
2019-04-27T05:17:39.909Z,967.96
2019-04-27T05:18:39.429Z,967.97
2019-04-27T05:19:39.188Z,968.01
2019-04-27T05:20:39.670Z,968.01
2019-04-27T05:21:39.147Z,968.00
2019-04-27T05:22:39.369Z,968.02
2019-04-27T05:23:39.081Z,968.02
2019-04-27T05:24:39.405Z,967.99
2019-04-27T05:25:39.164Z,968.03
2019-04-27T05:26:39.761Z,968.04
2019-04-27T05:27:40.635Z,968.08
2019-04-27T05:28:40.857Z,968.06
2019-04-27T05:29:39.051Z,968.06
2019-04-27T05:30:39.205Z,968.09
2019-04-27T05:31:39.010Z,968.02
2019-04-27T05:32:39.372Z,968.04
2019-04-27T05:33:38.951Z,968.08
2019-04-27T05:34:39.434Z,968.05
2019-04-27T05:35:41.077Z,968.05
2019-04-27T05:36:41.659Z,968.04
2019-04-27T05:37:39.045Z,968.07
2019-04-27T05:38:44.015Z,968.05
2019-04-27T05:39:38.991Z,968.03
2019-04-27T05:40:39.833Z,968.03
2019-04-27T05:41:41.208Z,968.00
2019-04-27T05:42:39.755Z,968.01
2019-04-27T05:43:39.022Z,968.01
2019-04-27T05:44:41.384Z,967.98
2019-04-27T05:45:39.641Z,968.00
2019-04-27T05:46:39.661Z,967.97
2019-04-27T05:47:39.272Z,968.01
2019-04-27T05:48:38.918Z,967.97
2019-04-27T05:49:41.086Z,968.00
2019-04-27T05:50:43.470Z,968.02
2019-04-27T05:51:41.721Z,968.03
2019-04-27T05:52:38.676Z,968.05
2019-04-27T05:53:39.579Z,968.05
2019-04-27T05:54:38.662Z,968.03
2019-04-27T05:55:39.310Z,968.04
2019-04-27T05:56:39.052Z,968.04
2019-04-27T05:57:39.052Z,968.09
2019-04-27T05:58:39.231Z,968.07
2019-04-27T05:59:39.767Z,968.10
2019-04-27T06:00:39.374Z,968.06
2019-04-27T06:01:38.923Z,968.13
2019-04-27T06:02:39.842Z,968.16
2019-04-27T06:03:39.678Z,968.11
2019-04-27T06:04:39.353Z,968.11
2019-04-27T06:05:39.138Z,968.08
2019-04-27T06:06:39.708Z,968.06
2019-04-27T06:07:39.610Z,968.07
2019-04-27T06:08:39.354Z,968.08
2019-04-27T06:09:39.138Z,968.12
2019-04-27T06:10:38.695Z,968.05
2019-04-27T06:11:39.818Z,968.04
2019-04-27T06:12:39.471Z,968.00
2019-04-27T06:13:39.246Z,968.02
2019-04-27T06:14:39.338Z,968.02
2019-04-27T06:15:38.946Z,968.02
2019-04-27T06:16:39.347Z,967.98
2019-04-27T06:17:38.690Z,968.00
2019-04-27T06:18:39.230Z,967.99
2019-04-27T06:19:39.078Z,968.00
2019-04-27T06:20:50.434Z,968.01
2019-04-27T06:21:37.743Z,967.96
2019-04-27T06:22:39.058Z,968.01
2019-04-27T06:23:39.074Z,967.99
2019-04-27T06:24:39.566Z,968.00
2019-04-27T06:25:39.350Z,968.00
2019-04-27T06:26:37.585Z,967.98
2019-04-27T06:27:37.555Z,968.03
2019-04-27T06:28:39.595Z,968.03
2019-04-27T06:29:39.218Z,968.01
2019-04-27T06:30:39.107Z,967.96
2019-04-27T06:31:37.481Z,967.95
2019-04-27T06:32:39.314Z,967.95
2019-04-27T06:33:39.138Z,967.93
2019-04-27T06:34:39.078Z,967.91
2019-04-27T06:35:37.383Z,967.91
2019-04-27T06:36:38.736Z,967.91
2019-04-27T06:37:38.882Z,967.88
2019-04-27T06:38:39.215Z,967.86
2019-04-27T06:39:38.657Z,967.87
2019-04-27T06:40:38.944Z,967.85
2019-04-27T06:41:37.244Z,967.87
2019-04-27T06:42:37.222Z,967.87
2019-04-27T06:43:37.196Z,967.88
2019-04-27T06:44:37.183Z,967.84
2019-04-27T06:45:38.795Z,967.83
2019-04-27T06:46:38.541Z,967.83
2019-04-27T06:47:39.604Z,967.85
2019-04-27T06:48:37.079Z,967.81
2019-04-27T06:49:37.060Z,967.83
2019-04-27T06:50:38.854Z,967.82
2019-04-27T06:51:37.027Z,967.84
2019-04-27T06:52:36.988Z,967.87
2019-04-27T06:53:36.972Z,967.81
2019-04-27T06:54:38.838Z,967.91
2019-04-27T06:55:36.933Z,967.97
2019-04-27T06:56:38.770Z,967.92
2019-04-27T06:57:36.875Z,967.91
2019-04-27T06:58:38.614Z,967.88
2019-04-27T06:59:36.830Z,967.85
2019-04-27T07:00:36.803Z,967.88
2019-04-27T07:01:36.786Z,967.91
2019-04-27T07:02:36.757Z,967.92
2019-04-27T07:03:36.740Z,967.92
2019-04-27T07:04:36.733Z,967.93
2019-04-27T07:05:36.690Z,967.89
2019-04-27T07:06:36.673Z,967.88
2019-04-27T07:07:36.646Z,967.86
2019-04-27T07:08:36.627Z,967.88
2019-04-27T07:09:36.609Z,967.86
2019-04-27T07:10:36.577Z,967.81
2019-04-27T07:11:36.562Z,967.83
2019-04-27T07:12:36.531Z,967.80
2019-04-27T07:13:36.521Z,967.78
2019-04-27T07:14:36.492Z,967.79
2019-04-27T07:15:36.482Z,967.78
2019-04-27T07:16:36.451Z,967.81
2019-04-27T07:17:36.429Z,967.81
2019-04-27T07:18:36.404Z,967.73
2019-04-27T07:19:36.382Z,967.70
2019-04-27T07:20:36.363Z,967.72
2019-04-27T07:21:36.336Z,967.71
2019-04-27T07:22:36.316Z,967.71
2019-04-27T07:23:36.293Z,967.71
2019-04-27T07:24:36.270Z,967.72
2019-04-27T07:25:36.260Z,967.68
2019-04-27T07:26:36.233Z,967.73
2019-04-27T07:27:36.211Z,967.72
2019-04-27T07:28:36.187Z,967.74
2019-04-27T07:29:36.179Z,967.70
2019-04-27T07:30:36.158Z,967.75
2019-04-27T07:31:36.126Z,967.77
2019-04-27T07:32:36.103Z,967.79
2019-04-27T07:33:36.177Z,967.76
2019-04-27T07:34:36.132Z,967.77
2019-04-27T07:35:36.068Z,967.75
2019-04-27T07:36:36.018Z,967.68
2019-04-27T07:37:35.992Z,967.71
2019-04-27T07:38:35.975Z,967.65
2019-04-27T07:39:35.959Z,967.61
2019-04-27T07:40:35.934Z,967.66
2019-04-27T07:41:35.919Z,967.60
2019-04-27T07:42:35.893Z,967.60
2019-04-27T07:43:35.873Z,967.60
2019-04-27T07:44:35.849Z,967.61
2019-04-27T07:45:35.831Z,967.54
2019-04-27T07:46:35.812Z,967.58
2019-04-27T07:47:35.794Z,967.54
2019-04-27T07:48:35.779Z,967.58
2019-04-27T07:49:35.757Z,967.56
2019-04-27T07:50:35.730Z,967.59
2019-04-27T07:51:35.705Z,967.55
2019-04-27T07:52:38.051Z,967.53
2019-04-27T07:53:35.669Z,967.50
2019-04-27T07:54:35.649Z,967.49
2019-04-27T07:55:35.628Z,967.52
2019-04-27T07:56:35.606Z,967.52
2019-04-27T07:57:35.591Z,967.52
2019-04-27T07:58:35.570Z,967.55
2019-04-27T07:59:35.553Z,967.51
2019-04-27T08:00:35.525Z,967.53
2019-04-27T08:01:35.513Z,967.61
2019-04-27T08:02:35.498Z,967.66
2019-04-27T08:03:35.471Z,967.87
2019-04-27T08:04:35.451Z,967.55
2019-04-27T08:05:35.433Z,967.53
2019-04-27T08:06:35.420Z,967.53
2019-04-27T08:07:35.395Z,967.49
2019-04-27T08:08:35.370Z,967.48
2019-04-27T08:09:35.356Z,967.41
2019-04-27T08:10:35.343Z,967.36
2019-04-27T08:11:35.322Z,967.45
2019-04-27T08:12:35.301Z,967.44
2019-04-27T08:13:35.287Z,967.45
2019-04-27T08:14:35.261Z,967.50
2019-04-27T08:15:35.247Z,967.47
2019-04-27T08:16:35.222Z,967.53
2019-04-27T08:17:35.213Z,967.63
2019-04-27T08:18:35.186Z,967.51
2019-04-27T08:19:35.173Z,967.56
2019-04-27T08:20:35.149Z,967.54
2019-04-27T08:21:43.454Z,967.55
2019-04-27T08:22:35.116Z,967.55
2019-04-27T08:23:35.097Z,967.46
2019-04-27T08:24:35.072Z,967.57
2019-04-27T08:25:35.062Z,967.56
2019-04-27T08:26:35.049Z,967.52
2019-04-27T08:27:35.046Z,967.61
2019-04-27T08:28:35.002Z,967.59
2019-04-27T08:29:34.979Z,967.58
2019-04-27T08:30:34.967Z,967.59
2019-04-27T08:31:34.946Z,967.66
2019-04-27T08:32:34.928Z,967.56
2019-04-27T08:33:34.905Z,967.56
2019-04-27T08:34:34.901Z,967.59
2019-04-27T08:35:34.868Z,967.57
2019-04-27T08:36:34.849Z,967.52
2019-04-27T08:37:34.832Z,967.60
2019-04-27T08:38:34.814Z,967.48
2019-04-27T08:39:34.792Z,967.48
2019-04-27T08:40:34.772Z,967.50
2019-04-27T08:41:34.762Z,967.57
2019-04-27T08:42:34.740Z,967.62
2019-04-27T08:43:34.720Z,967.64
2019-04-27T08:44:34.713Z,967.89
2019-04-27T08:45:34.680Z,967.40
2019-04-27T08:46:34.672Z,967.50
2019-04-27T08:47:34.648Z,967.53
2019-04-27T08:48:36.900Z,967.33
2019-04-27T08:49:34.621Z,967.70
2019-04-27T08:50:34.599Z,967.42
2019-04-27T08:51:34.581Z,967.34
2019-04-27T08:52:34.567Z,967.80
2019-04-27T08:53:34.554Z,967.42
2019-04-27T08:54:34.539Z,967.80
2019-04-27T08:55:34.546Z,967.73
2019-04-27T08:56:34.500Z,967.75
2019-04-27T08:57:34.509Z,967.68
2019-04-27T08:58:34.474Z,967.72
2019-04-27T08:59:34.467Z,967.77
2019-04-27T09:00:34.452Z,967.83
2019-04-27T09:01:34.447Z,967.89
2019-04-27T09:02:44.598Z,967.86
2019-04-27T09:03:34.429Z,967.89
2019-04-27T09:04:34.401Z,967.94
2019-04-27T09:05:34.404Z,967.99
2019-04-27T09:06:37.266Z,967.83
2019-04-27T09:07:34.392Z,967.85
2019-04-27T09:08:34.357Z,967.86
2019-04-27T09:09:34.345Z,967.82
2019-04-27T09:10:34.330Z,967.86
2019-04-27T09:11:34.340Z,967.91
2019-04-27T09:12:34.311Z,967.91
2019-04-27T09:13:34.295Z,968.04
2019-04-27T09:14:34.287Z,967.99
2019-04-27T09:15:34.281Z,968.26
2019-04-27T09:16:34.264Z,968.32
2019-04-27T09:17:42.919Z,968.35
2019-04-27T09:19:29.160Z,968.57
2019-04-27T09:20:35.508Z,968.17
2019-04-27T09:22:21.234Z,968.70
2019-04-27T09:23:29.419Z,968.78
2019-04-27T09:25:14.811Z,967.33
2019-04-27T09:26:14.587Z,968.41
2019-04-27T09:28:09.194Z,966.67
2019-04-27T09:29:17.850Z,966.75
2019-04-27T09:31:03.699Z,966.75
2019-04-27T09:32:15.830Z,966.77
2019-04-27T09:33:57.052Z,968.78
2019-04-27T09:34:57.085Z,967.20
2019-04-27T09:35:57.023Z,968.50
2019-04-27T09:36:57.014Z,968.43
2019-04-27T09:37:56.997Z,968.17
2019-04-27T09:38:56.989Z,968.01
2019-04-27T09:39:56.980Z,968.00
2019-04-27T09:40:58.137Z,967.92
2019-04-27T09:41:57.270Z,966.97
2019-04-27T09:42:57.345Z,966.68
2019-04-27T09:43:56.935Z,966.58
2019-04-27T09:44:56.923Z,966.55
2019-04-27T09:45:56.914Z,966.60
2019-04-27T09:46:56.906Z,966.62
2019-04-27T09:47:56.887Z,966.76
2019-04-27T09:48:56.879Z,966.57
2019-04-27T09:49:56.868Z,966.50
2019-04-27T09:50:56.859Z,966.48
2019-04-27T09:51:56.843Z,966.50
2019-04-27T09:52:56.835Z,966.56
2019-04-27T09:53:56.818Z,966.55
2019-04-27T09:54:56.810Z,966.52
2019-04-27T09:55:56.795Z,966.47
2019-04-27T09:56:56.786Z,966.46
2019-04-27T09:57:57.041Z,966.48
2019-04-27T09:58:57.307Z,966.46
2019-04-27T09:59:56.762Z,966.53
2019-04-27T10:00:56.896Z,966.63
2019-04-27T10:01:57.697Z,966.76
2019-04-27T10:02:56.712Z,966.49
2019-04-27T10:03:56.904Z,966.44
2019-04-27T10:04:56.687Z,966.64
2019-04-27T10:05:57.122Z,966.57
2019-04-27T10:06:57.009Z,966.51
2019-04-27T10:07:57.015Z,966.43
2019-04-27T10:08:57.747Z,966.43
2019-04-27T10:09:56.608Z,966.27
2019-04-27T10:10:56.778Z,966.33
2019-04-27T10:11:57.544Z,966.37
2019-04-27T10:12:56.934Z,966.42
2019-04-27T10:13:56.569Z,966.39
2019-04-27T10:14:56.552Z,966.43
2019-04-27T10:15:56.539Z,966.39
2019-04-27T10:16:56.539Z,966.31
2019-04-27T10:17:57.805Z,966.26
2019-04-27T10:18:56.498Z,966.33
2019-04-27T10:19:57.064Z,966.29
2019-04-27T10:21:01.698Z,966.28
2019-04-27T10:21:56.462Z,966.30
2019-04-27T10:22:56.634Z,966.26
2019-04-27T10:23:56.830Z,966.22
2019-04-27T10:24:56.418Z,966.17
2019-04-27T10:25:56.409Z,966.22
2019-04-27T10:26:56.393Z,966.22
2019-04-27T10:27:56.380Z,966.13
2019-04-27T10:28:56.371Z,966.18
2019-04-27T10:29:56.683Z,966.20
2019-04-27T10:30:56.337Z,966.13
2019-04-27T10:31:56.531Z,966.15
2019-04-27T10:32:56.303Z,966.14
2019-04-27T10:33:56.293Z,966.12
2019-04-27T10:34:56.281Z,966.07
2019-04-27T10:35:56.553Z,966.09
2019-04-27T10:36:56.245Z,966.07
2019-04-27T10:37:56.235Z,966.00
2019-04-27T10:38:56.210Z,965.99
2019-04-27T10:39:56.205Z,966.04
2019-04-27T10:40:56.184Z,966.03
2019-04-27T10:41:56.415Z,965.98
2019-04-27T10:42:56.188Z,965.98
2019-04-27T10:43:56.145Z,965.97
2019-04-27T10:44:56.173Z,965.99
2019-04-27T10:45:56.564Z,966.02
2019-04-27T10:46:56.098Z,966.00
2019-04-27T10:47:56.345Z,965.99
2019-04-27T10:48:56.088Z,966.02
2019-04-27T10:49:56.674Z,966.02
2019-04-27T10:50:56.031Z,966.11
2019-04-27T10:51:56.024Z,966.11
2019-04-27T10:52:58.913Z,966.15
2019-04-27T10:53:55.983Z,966.13
2019-04-27T10:54:57.433Z,966.16
2019-04-27T10:55:56.533Z,966.16
2019-04-27T10:56:55.969Z,966.09
2019-04-27T10:57:55.910Z,966.11
2019-04-27T10:58:55.908Z,966.18
2019-04-27T10:59:56.341Z,966.19
2019-04-27T11:00:56.533Z,966.23
2019-04-27T11:01:56.075Z,966.23
2019-04-27T11:02:56.807Z,966.18
2019-04-27T11:03:57.416Z,966.24
2019-04-27T11:04:56.573Z,966.31
2019-04-27T11:05:56.992Z,966.29
2019-04-27T11:06:55.748Z,966.27
2019-04-27T11:07:56.461Z,966.26
2019-04-27T11:08:56.104Z,966.27
2019-04-27T11:09:55.704Z,966.22
2019-04-27T11:10:56.399Z,966.26
2019-04-27T11:11:56.650Z,966.18
2019-04-27T11:12:56.081Z,966.23
2019-04-27T11:13:56.948Z,966.25
2019-04-27T11:14:55.583Z,966.21
2019-04-27T11:15:55.580Z,966.23
2019-04-27T11:16:56.059Z,966.26
2019-04-27T11:17:56.129Z,966.34
2019-04-27T11:18:56.451Z,966.34
2019-04-27T11:19:55.514Z,966.35
2019-04-27T11:20:56.763Z,966.44
2019-04-27T11:21:55.448Z,966.42
2019-04-27T11:23:06.646Z,966.37
2019-04-27T11:23:55.986Z,966.40
2019-04-27T11:24:56.422Z,966.36
2019-04-27T11:25:55.403Z,966.40
2019-04-27T11:26:56.686Z,966.36
2019-04-27T11:27:57.541Z,966.39
2019-04-27T11:28:55.354Z,966.39
2019-04-27T11:29:56.439Z,966.42
2019-04-27T11:30:55.306Z,966.41
2019-04-27T11:31:55.666Z,966.40
2019-04-27T11:32:59.009Z,966.40
2019-04-27T11:33:56.650Z,966.36
2019-04-27T11:34:55.872Z,966.34
2019-04-27T11:35:55.158Z,966.36
2019-04-27T11:36:55.594Z,966.26
2019-04-27T11:37:55.713Z,966.30
2019-04-27T11:38:56.533Z,966.29
2019-04-27T11:39:55.946Z,966.33
2019-04-27T11:40:56.647Z,966.29
2019-04-27T11:41:55.033Z,966.26
2019-04-27T11:42:57.070Z,966.25
2019-04-27T11:43:56.547Z,966.29
2019-04-27T11:44:58.064Z,966.23
2019-04-27T11:45:55.917Z,966.30
2019-04-27T11:46:55.906Z,966.27
2019-04-27T11:47:55.323Z,966.29
2019-04-27T11:48:58.052Z,966.16
2019-04-27T11:49:54.874Z,966.16
2019-04-27T11:50:56.038Z,966.20
2019-04-27T11:51:56.592Z,966.22
2019-04-27T11:52:56.535Z,966.17
2019-04-27T11:53:54.814Z,966.10
2019-04-27T11:54:55.733Z,966.15
2019-04-27T11:55:54.752Z,966.14
2019-04-27T11:56:56.065Z,966.10
2019-04-27T11:57:55.963Z,966.17
2019-04-27T11:58:56.070Z,966.16
2019-04-27T11:59:56.316Z,966.17
2019-04-27T12:00:54.652Z,966.11
2019-04-27T12:01:55.939Z,966.09
2019-04-27T12:02:54.611Z,966.10
2019-04-27T12:03:55.653Z,966.11
2019-04-27T12:04:54.579Z,966.07
2019-04-27T12:05:58.059Z,966.07
2019-04-27T12:06:56.371Z,966.12
2019-04-27T12:07:56.070Z,966.14
2019-04-27T12:08:54.504Z,966.11
2019-04-27T12:09:55.528Z,966.18
2019-04-27T12:10:55.683Z,966.10
2019-04-27T12:11:55.887Z,966.11
2019-04-27T12:12:56.185Z,966.13
2019-04-27T12:13:56.036Z,966.16
2019-04-27T12:14:56.107Z,966.15
2019-04-27T12:15:54.350Z,966.14
2019-04-27T12:16:56.103Z,966.14
2019-04-27T12:17:56.196Z,966.16
2019-04-27T12:18:56.218Z,966.12
2019-04-27T12:19:54.264Z,966.12
2019-04-27T12:20:55.814Z,966.09
2019-04-27T12:21:54.227Z,966.05
2019-04-27T12:22:54.207Z,966.03
2019-04-27T12:23:54.185Z,965.99
2019-04-27T12:24:54.164Z,966.00
2019-04-27T12:25:54.152Z,966.01
2019-04-27T12:26:55.799Z,965.96
2019-04-27T12:27:54.113Z,965.93
2019-04-27T12:28:55.965Z,965.98
2019-04-27T12:29:55.721Z,965.91
2019-04-27T12:30:54.043Z,965.94
2019-04-27T12:31:54.032Z,965.89
2019-04-27T12:32:55.649Z,965.87
2019-04-27T12:33:55.904Z,965.84
2019-04-27T12:34:53.962Z,965.87
2019-04-27T12:35:53.943Z,965.88
2019-04-27T12:36:53.940Z,965.87
2019-04-27T12:37:55.820Z,965.84
2019-04-27T12:38:53.886Z,965.94
2019-04-27T12:39:55.512Z,965.91
2019-04-27T12:40:53.846Z,965.90
2019-04-27T12:41:53.832Z,965.93
2019-04-27T12:42:53.806Z,965.96
2019-04-27T12:43:53.786Z,965.94